createdAt,value
2022-12-18T00:01:17.147Z,70.10
2022-12-18T00:03:44.420Z,60.40
2022-12-18T00:06:12.656Z,62.80
2022-12-18T00:08:39.525Z,70.35
2022-12-18T00:11:12.131Z,64.50
2022-12-18T00:13:39.214Z,60.75
2022-12-18T00:16:08.953Z,65.93
2022-12-18T00:18:36.210Z,70.47
2022-12-18T00:21:05.993Z,67.40
2022-12-18T00:23:34.351Z,69.88
2022-12-18T00:26:06.630Z,69.05
2022-12-18T00:28:34.006Z,63.40
2022-12-18T00:31:04.435Z,60.00
2022-12-18T00:33:31.661Z,61.42
2022-12-18T00:36:16.817Z,60.50
2022-12-18T00:38:44.608Z,61.03
2022-12-18T00:41:12.914Z,64.57
2022-12-18T00:43:41.015Z,62.95
2022-12-18T00:46:08.096Z,64.28
2022-12-18T00:48:34.835Z,60.22
2022-12-18T00:51:01.612Z,55.22
2022-12-18T00:53:31.320Z,54.88
2022-12-18T00:55:59.182Z,55.55
2022-12-18T00:58:25.873Z,54.97
2022-12-18T01:00:52.610Z,63.28
2022-12-18T01:03:19.357Z,60.58
2022-12-18T01:05:46.140Z,50.33
2022-12-18T01:08:12.859Z,58.22
2022-12-18T01:10:42.449Z,63.03
2022-12-18T01:13:09.440Z,70.05
2022-12-18T01:15:36.739Z,75.25
2022-12-18T01:18:03.597Z,54.78
2022-12-18T01:20:30.327Z,64.20
2022-12-18T01:22:56.996Z,67.28
2022-12-18T01:25:23.702Z,69.22
2022-12-18T01:27:50.437Z,62.35
2022-12-18T01:30:17.206Z,63.88
2022-12-18T01:32:43.926Z,64.53
2022-12-18T01:35:10.610Z,66.85
2022-12-18T01:37:37.309Z,54.50
2022-12-18T01:40:05.485Z,63.85
2022-12-18T01:42:32.176Z,60.75
2022-12-18T01:45:17.130Z,55.13
2022-12-18T01:48:10.234Z,63.85
2022-12-18T01:50:43.057Z,57.40
2022-12-18T01:53:19.981Z,57.83
2022-12-18T01:55:50.853Z,64.80
2022-12-18T01:58:19.190Z,56.90
2022-12-18T02:00:45.972Z,57.80
2022-12-18T02:03:13.204Z,57.75
2022-12-18T02:05:48.110Z,51.92
2022-12-18T02:08:22.744Z,63.87
2022-12-18T02:11:04.515Z,57.92
2022-12-18T02:13:57.959Z,55.85
2022-12-18T02:16:36.830Z,54.10
2022-12-18T02:19:21.190Z,52.80
2022-12-18T02:22:10.095Z,59.10
2022-12-18T02:24:49.151Z,53.20
2022-12-18T02:27:16.406Z,53.47
2022-12-18T02:30:03.301Z,57.08
2022-12-18T02:32:35.290Z,48.45
2022-12-18T02:35:05.602Z,54.95
2022-12-18T02:37:34.545Z,53.28
2022-12-18T02:40:02.115Z,49.05
2022-12-18T02:42:29.435Z,52.03
2022-12-18T02:44:56.131Z,56.50
2022-12-18T02:47:25.517Z,57.08
2022-12-18T02:50:27.589Z,53.00
2022-12-18T02:53:19.892Z,58.10
2022-12-18T02:56:22.996Z,53.70
2022-12-18T02:59:07.930Z,53.92
2022-12-18T03:01:34.696Z,55.40
2022-12-18T03:04:17.130Z,49.97
2022-12-18T03:06:49.392Z,52.65
2022-12-18T03:09:26.050Z,54.47
2022-12-18T03:12:19.035Z,51.42
2022-12-18T03:14:50.873Z,53.97
2022-12-18T03:17:21.657Z,53.13
2022-12-18T03:19:50.370Z,50.70
2022-12-18T03:22:17.958Z,42.72
2022-12-18T03:24:47.193Z,48.78
2022-12-18T03:27:18.415Z,42.47
2022-12-18T03:30:03.808Z,53.10
2022-12-18T03:32:34.035Z,46.65
2022-12-18T03:35:05.382Z,50.92
2022-12-18T03:37:32.524Z,47.17
2022-12-18T03:39:59.421Z,53.42
2022-12-18T03:42:40.011Z,51.33
2022-12-18T03:45:15.697Z,52.35
2022-12-18T03:50:26.996Z,47.08
2022-12-18T03:53:44.596Z,47.42
2022-12-18T03:58:42.181Z,53.65
2022-12-18T04:01:10.927Z,56.58
2022-12-18T04:03:40.040Z,55.80
2022-12-18T04:06:08.249Z,56.38
2022-12-18T04:08:35.894Z,53.38
2022-12-18T04:11:03.113Z,58.85
2022-12-18T04:13:34.191Z,50.40
2022-12-18T04:16:01.411Z,59.72
2022-12-18T04:18:28.261Z,56.72
2022-12-18T04:20:55.325Z,58.15
2022-12-18T04:23:22.569Z,52.05
2022-12-18T04:25:49.927Z,51.75
2022-12-18T04:28:16.662Z,54.55
2022-12-18T04:30:43.457Z,58.75
2022-12-18T04:33:18.803Z,59.28
2022-12-18T04:35:46.595Z,58.08
2022-12-18T04:38:13.292Z,52.65
2022-12-18T04:40:39.987Z,54.00
2022-12-18T04:43:08.727Z,57.00
2022-12-18T04:45:35.754Z,61.28
2022-12-18T04:48:05.585Z,63.40
2022-12-18T04:50:32.748Z,63.88
2022-12-18T04:52:59.475Z,68.07
2022-12-18T04:55:29.129Z,58.63
2022-12-18T04:57:55.824Z,59.28
2022-12-18T05:00:23.156Z,57.05
2022-12-18T05:02:49.982Z,63.08
2022-12-18T05:05:16.887Z,59.47
2022-12-18T05:07:43.736Z,54.55
2022-12-18T05:10:10.982Z,59.85
2022-12-18T05:12:58.995Z,57.30
2022-12-18T05:15:31.428Z,60.10
2022-12-18T05:17:59.426Z,59.88
2022-12-18T05:20:27.233Z,54.40
2022-12-18T05:22:55.134Z,55.42
2022-12-18T05:25:22.823Z,66.88
2022-12-18T05:27:49.655Z,64.70
2022-12-18T05:30:16.884Z,59.95
2022-12-18T05:32:44.250Z,53.00
2022-12-18T05:35:14.519Z,65.88
2022-12-18T05:37:43.289Z,60.00
2022-12-18T05:40:10.840Z,62.03
2022-12-18T05:42:37.747Z,62.22
2022-12-18T05:45:06.077Z,56.38
2022-12-18T05:47:32.885Z,55.45
2022-12-18T05:49:59.585Z,69.22
2022-12-18T05:52:26.400Z,56.00
2022-12-18T05:54:53.107Z,56.60
2022-12-18T05:57:19.865Z,52.20
2022-12-18T05:59:46.543Z,56.05
2022-12-18T06:02:13.429Z,55.47
2022-12-18T06:04:40.324Z,57.25
2022-12-18T06:07:07.335Z,58.80
2022-12-18T06:09:34.110Z,57.40
2022-12-18T06:12:00.964Z,61.65
2022-12-18T06:14:27.729Z,54.35
2022-12-18T06:16:54.440Z,57.63
2022-12-18T06:19:21.215Z,56.55
2022-12-18T06:21:48.011Z,64.97
2022-12-18T06:24:14.762Z,66.80
2022-12-18T06:26:41.666Z,61.00
2022-12-18T06:29:08.530Z,66.68
2022-12-18T06:31:38.348Z,62.95
2022-12-18T06:34:05.736Z,60.47
2022-12-18T06:36:32.874Z,64.43
2022-12-18T06:38:59.840Z,64.72
2022-12-18T06:41:26.878Z,58.97
2022-12-18T06:43:56.941Z,64.47
2022-12-18T06:46:26.384Z,63.80
2022-12-18T06:48:53.671Z,64.75
2022-12-18T06:51:24.901Z,62.67
2022-12-18T06:53:51.808Z,64.45
2022-12-18T06:56:18.593Z,50.05
2022-12-18T06:58:45.325Z,55.33
2022-12-18T07:01:13.097Z,64.30
2022-12-18T07:03:42.091Z,59.08
2022-12-18T07:06:20.514Z,53.28
2022-12-18T07:08:47.710Z,62.00
2022-12-18T07:11:15.087Z,65.55
2022-12-18T07:13:42.667Z,57.95
2022-12-18T07:16:18.311Z,60.35
2022-12-18T07:18:48.076Z,53.90
2022-12-18T07:21:18.155Z,57.58
2022-12-18T07:23:47.255Z,57.05
2022-12-18T07:26:16.257Z,57.13
2022-12-18T07:28:43.810Z,63.15
2022-12-18T07:31:16.717Z,63.75
2022-12-18T07:33:44.361Z,62.65
2022-12-18T07:36:11.617Z,61.83
2022-12-18T07:38:38.788Z,67.00
2022-12-18T07:41:08.809Z,88.50
2022-12-18T07:43:38.522Z,82.32
2022-12-18T07:46:05.919Z,95.82
2022-12-18T07:48:32.788Z,70.38
2022-12-18T07:51:05.116Z,72.40
2022-12-18T07:53:35.368Z,59.55
2022-12-18T07:58:54.513Z,66.60
2022-12-18T08:01:21.515Z,65.63
2022-12-18T08:03:48.410Z,57.35
2022-12-18T08:06:16.599Z,70.82
2022-12-18T08:08:43.456Z,82.47
2022-12-18T08:11:13.130Z,67.13
2022-12-18T08:13:40.204Z,65.60
2022-12-18T08:16:08.474Z,67.80
2022-12-18T08:18:37.439Z,78.75
2022-12-18T08:21:11.795Z,65.75
2022-12-18T08:23:42.737Z,75.05
2022-12-18T08:26:11.393Z,65.75
2022-12-18T08:28:38.398Z,74.85
2022-12-18T08:31:05.589Z,65.88
2022-12-18T08:33:33.010Z,72.57
2022-12-18T08:36:00.429Z,79.28
2022-12-18T08:38:27.483Z,69.75
2022-12-18T08:41:01.471Z,73.35
2022-12-18T08:43:47.195Z,67.70
2022-12-18T08:46:17.010Z,71.18
2022-12-18T08:48:43.929Z,80.82
2022-12-18T08:51:10.680Z,64.90
2022-12-18T08:53:38.332Z,64.72
2022-12-18T08:56:06.049Z,65.03
2022-12-18T08:58:32.847Z,63.45
2022-12-18T09:01:04.159Z,68.57
2022-12-18T09:03:31.093Z,79.38
2022-12-18T09:05:58.024Z,69.82
2022-12-18T09:08:24.797Z,66.78
2022-12-18T09:10:52.197Z,64.30
2022-12-18T09:13:19.837Z,62.90
2022-12-18T09:15:52.510Z,56.90
2022-12-18T09:18:21.148Z,64.85
2022-12-18T09:20:48.335Z,60.25
2022-12-18T09:23:15.658Z,63.38
2022-12-18T09:25:42.506Z,61.10
2022-12-18T09:28:15.520Z,63.40
2022-12-18T09:30:46.049Z,61.90
2022-12-18T09:33:12.978Z,60.20
2022-12-18T09:35:41.554Z,61.55
2022-12-18T09:38:12.287Z,80.72
2022-12-18T09:40:52.654Z,68.63
2022-12-18T09:43:28.070Z,65.30
2022-12-18T09:46:00.033Z,70.28
2022-12-18T09:48:49.008Z,71.13
2022-12-18T09:51:30.281Z,70.45
2022-12-18T09:54:12.704Z,57.13
2022-12-18T09:56:43.551Z,61.63
2022-12-18T09:59:40.754Z,56.30
2022-12-18T10:02:18.264Z,58.92
2022-12-18T10:04:49.732Z,59.08
2022-12-18T10:07:25.184Z,51.95
2022-12-18T10:10:08.002Z,60.47
2022-12-18T10:12:50.328Z,50.35
2022-12-18T10:15:19.704Z,44.67
2022-12-18T10:18:20.202Z,52.97
2022-12-18T10:20:55.698Z,50.47
2022-12-18T10:23:47.863Z,52.20
2022-12-18T10:26:15.311Z,55.33
2022-12-18T10:28:44.612Z,50.63
2022-12-18T10:31:20.602Z,52.58
2022-12-18T10:33:47.548Z,57.17
2022-12-18T10:36:14.659Z,55.53
2022-12-18T10:38:42.193Z,45.28
2022-12-18T10:41:23.068Z,53.90
2022-12-18T10:44:09.884Z,47.08
2022-12-18T10:46:36.683Z,45.65
2022-12-18T10:49:03.759Z,48.10
2022-12-18T10:51:37.128Z,50.03
2022-12-18T10:54:28.742Z,54.63
2022-12-18T10:57:30.231Z,59.80
2022-12-18T10:59:58.911Z,42.88
2022-12-18T11:02:35.968Z,48.20
2022-12-18T11:05:04.483Z,49.33
2022-12-18T11:07:50.433Z,51.72
2022-12-18T11:10:19.702Z,52.83
2022-12-18T11:12:47.038Z,47.15
2022-12-18T11:15:21.305Z,45.00
2022-12-18T11:17:50.490Z,46.63
2022-12-18T11:20:34.648Z,52.60
2022-12-18T11:23:11.303Z,46.83
2022-12-18T11:25:38.095Z,50.47
2022-12-18T11:28:26.124Z,50.42
2022-12-18T11:31:16.863Z,51.55
2022-12-18T11:34:26.764Z,50.53
2022-12-18T11:36:45.401Z,50.03
2022-12-18T11:39:39.473Z,50.83
2022-12-18T11:42:17.072Z,49.35
2022-12-18T11:44:51.032Z,46.90
2022-12-18T11:47:38.220Z,48.40
2022-12-18T11:50:38.301Z,53.63
2022-12-18T11:53:06.496Z,46.17
2022-12-18T11:56:07.294Z,45.33
2022-12-18T11:59:15.627Z,49.10
2022-12-18T12:01:51.686Z,47.38
2022-12-18T12:04:40.470Z,44.30
2022-12-18T12:07:35.630Z,40.58
2022-12-18T12:10:23.882Z,44.65
2022-12-18T12:12:59.444Z,48.05
2022-12-18T12:15:48.114Z,51.78
2022-12-18T12:18:26.703Z,44.47
2022-12-18T12:21:05.511Z,51.33
2022-12-18T12:23:37.929Z,48.30
2022-12-18T12:26:12.375Z,46.72
2022-12-18T12:29:25.144Z,47.95
2022-12-18T12:32:15.034Z,48.72
2022-12-18T12:35:01.682Z,52.38
2022-12-18T12:37:36.461Z,49.05
2022-12-18T12:40:26.875Z,51.47
2022-12-18T12:43:15.116Z,46.85
2022-12-18T12:45:48.058Z,48.70
2022-12-18T12:48:41.130Z,50.90
2022-12-18T12:51:32.857Z,48.92
2022-12-18T12:54:02.226Z,42.83
2022-12-18T12:56:52.009Z,53.70
2022-12-18T13:00:04.477Z,53.78
2022-12-18T13:03:08.843Z,46.67
2022-12-18T13:05:51.773Z,54.33
2022-12-18T13:08:26.605Z,55.58
2022-12-18T13:11:16.404Z,308.13
2022-12-18T13:13:55.587Z,135.32
2022-12-18T13:16:28.434Z,72.10
2022-12-18T13:18:59.810Z,63.00
2022-12-18T13:21:33.313Z,60.47
2022-12-18T13:24:25.550Z,90.65
2022-12-18T13:26:52.352Z,61.38
2022-12-18T13:29:42.983Z,59.38
2022-12-18T13:32:23.074Z,57.58
2022-12-18T13:35:23.020Z,52.67
2022-12-18T13:37:55.843Z,56.90
2022-12-18T13:40:40.496Z,49.42
2022-12-18T13:43:22.482Z,51.67
2022-12-18T13:46:00.045Z,52.92
2022-12-18T13:48:30.112Z,50.53
2022-12-18T13:51:04.421Z,58.53
2022-12-18T13:53:54.542Z,59.00
2022-12-18T13:56:27.622Z,62.08
2022-12-18T13:59:17.207Z,62.45
2022-12-18T14:01:49.456Z,58.28
2022-12-18T14:04:34.292Z,55.80
2022-12-18T14:07:08.314Z,57.05
2022-12-18T14:09:43.147Z,50.13
2022-12-18T14:12:38.165Z,60.50
2022-12-18T14:15:06.997Z,53.25
2022-12-18T14:17:34.578Z,52.35
2022-12-18T14:20:02.171Z,53.63
2022-12-18T14:22:30.427Z,55.45
2022-12-18T14:25:18.813Z,58.35
2022-12-18T14:27:54.822Z,51.20
2022-12-18T14:30:24.581Z,53.03
2022-12-18T14:33:03.266Z,53.58
2022-12-18T14:35:30.026Z,52.42
2022-12-18T14:38:16.727Z,48.50
2022-12-18T14:40:44.609Z,50.80
2022-12-18T14:43:12.270Z,50.85
2022-12-18T14:45:45.123Z,48.65
2022-12-18T14:48:23.570Z,54.58
2022-12-18T14:51:03.321Z,60.80
2022-12-18T14:53:44.398Z,54.35
2022-12-18T14:56:25.609Z,48.15
2022-12-18T14:58:59.900Z,53.78
2022-12-18T15:01:36.115Z,58.15
2022-12-18T15:04:05.262Z,57.55
2022-12-18T15:06:38.775Z,56.85
2022-12-18T15:09:25.039Z,53.42
2022-12-18T15:12:00.939Z,49.10
2022-12-18T15:17:22.374Z,70.47
2022-12-18T15:19:52.800Z,58.58
2022-12-18T15:22:37.771Z,58.00
2022-12-18T15:25:37.541Z,55.63
2022-12-18T15:28:16.674Z,54.75
2022-12-18T15:30:59.796Z,53.60
2022-12-18T15:33:30.693Z,65.15
2022-12-18T15:36:02.851Z,58.58
2022-12-18T15:38:29.715Z,54.67
2022-12-18T15:40:56.546Z,51.03
2022-12-18T15:43:36.380Z,57.65
2022-12-18T15:46:07.466Z,59.85
2022-12-18T15:48:36.380Z,56.97
2022-12-18T15:51:06.055Z,53.00
2022-12-18T15:53:34.882Z,59.10
2022-12-18T15:56:20.185Z,56.08
2022-12-18T15:58:46.941Z,60.90
2022-12-18T16:01:26.993Z,64.65
2022-12-18T16:03:54.912Z,63.85
2022-12-18T16:06:22.867Z,60.60
2022-12-18T16:08:49.770Z,64.53
2022-12-18T16:11:40.211Z,63.45
2022-12-18T16:14:10.766Z,64.35
2022-12-18T16:16:37.504Z,70.25
2022-12-18T16:19:04.177Z,68.13
2022-12-18T16:21:34.131Z,67.07
2022-12-18T16:24:01.006Z,66.40
2022-12-18T16:26:27.679Z,71.57
2022-12-18T16:28:54.617Z,69.60
2022-12-18T16:31:21.896Z,69.20
2022-12-18T16:33:48.595Z,76.30
2022-12-18T16:36:15.445Z,85.68
2022-12-18T16:38:42.193Z,90.10
2022-12-18T16:41:32.982Z,86.18
2022-12-18T16:44:01.069Z,77.03
2022-12-18T16:46:27.842Z,84.57
2022-12-18T16:48:54.680Z,92.53
2022-12-18T16:51:21.500Z,84.35
2022-12-18T16:53:48.389Z,90.97
2022-12-18T16:56:15.164Z,102.18
2022-12-18T16:58:41.838Z,98.38
2022-12-18T17:01:11.887Z,88.32
2022-12-18T17:03:38.979Z,104.07
2022-12-18T17:06:06.939Z,85.80
2022-12-18T17:08:33.679Z,93.65
2022-12-18T17:11:07.741Z,94.63
2022-12-18T17:13:34.574Z,90.47
2022-12-18T17:16:06.628Z,82.95
2022-12-18T17:18:34.606Z,78.03
2022-12-18T17:21:02.234Z,81.50
2022-12-18T17:23:30.103Z,86.68
2022-12-18T17:25:58.424Z,79.55
2022-12-18T17:28:26.391Z,80.60
2022-12-18T17:30:57.323Z,76.80
2022-12-18T17:33:24.527Z,72.20
2022-12-18T17:35:51.279Z,68.07
2022-12-18T17:38:18.468Z,73.28
2022-12-18T17:40:46.577Z,69.45
2022-12-18T17:43:13.560Z,68.35
2022-12-18T17:45:41.047Z,66.90
2022-12-18T17:48:09.243Z,64.80
2022-12-18T17:50:36.642Z,67.35
2022-12-18T17:53:03.784Z,64.97
2022-12-18T17:55:30.726Z,63.65
2022-12-18T17:57:57.443Z,67.78
2022-12-18T18:00:24.130Z,67.47
2022-12-18T18:02:50.913Z,62.30
2022-12-18T18:05:17.693Z,74.72
2022-12-18T18:07:44.400Z,81.75
2022-12-18T18:10:11.159Z,75.63
2022-12-18T18:12:56.652Z,71.78
2022-12-18T18:15:23.366Z,63.87
2022-12-18T18:17:50.097Z,64.30
2022-12-18T18:20:22.355Z,72.35
2022-12-18T18:22:49.653Z,82.85
2022-12-18T18:25:16.929Z,71.28
2022-12-18T18:27:44.775Z,61.20
2022-12-18T18:30:14.329Z,73.65
2022-12-18T18:32:41.167Z,71.60
2022-12-18T18:35:15.701Z,75.43
2022-12-18T18:37:55.329Z,75.57
2022-12-18T18:40:22.043Z,68.40
2022-12-18T18:42:48.778Z,66.78
2022-12-18T18:45:15.524Z,68.20
2022-12-18T18:47:42.224Z,69.28
2022-12-18T18:50:10.254Z,65.10
2022-12-18T18:52:36.958Z,67.20
2022-12-18T18:55:21.397Z,63.28
2022-12-18T18:57:52.320Z,73.85
2022-12-18T19:00:19.264Z,61.03
2022-12-18T19:02:46.215Z,71.32
2022-12-18T19:05:13.066Z,72.10
2022-12-18T19:07:39.743Z,63.33
2022-12-18T19:10:07.269Z,75.30
2022-12-18T19:12:53.317Z,66.43
2022-12-18T19:15:20.299Z,60.25
2022-12-18T19:17:47.465Z,58.22
2022-12-18T19:20:15.152Z,65.05
2022-12-18T19:22:42.123Z,67.80
2022-12-18T19:25:09.871Z,64.07
2022-12-18T19:27:38.879Z,66.80
2022-12-18T19:30:06.290Z,67.80
2022-12-18T19:32:33.904Z,67.30
2022-12-18T19:35:00.615Z,66.40
2022-12-18T19:37:28.425Z,64.53
2022-12-18T19:39:55.356Z,68.80
2022-12-18T19:42:27.129Z,73.05
2022-12-18T19:44:56.164Z,79.32
2022-12-18T19:47:22.859Z,92.50
2022-12-18T19:49:49.628Z,104.22
2022-12-18T19:52:16.387Z,100.85
2022-12-18T19:54:43.103Z,81.22
2022-12-18T19:57:11.501Z,85.25
2022-12-18T19:59:38.400Z,71.47
2022-12-18T20:02:06.008Z,66.70
2022-12-18T20:04:33.105Z,62.70
2022-12-18T20:06:59.907Z,63.75
2022-12-18T20:09:26.804Z,59.25
2022-12-18T20:11:54.338Z,45.38
2022-12-18T20:14:23.541Z,39.70
2022-12-18T20:16:51.567Z,50.13
2022-12-18T20:19:18.538Z,64.90
2022-12-18T20:21:46.037Z,49.85
2022-12-18T20:24:12.982Z,61.17
2022-12-18T20:26:40.520Z,60.97
2022-12-18T20:29:07.476Z,54.92
2022-12-18T20:31:34.273Z,47.72
2022-12-18T20:34:02.754Z,40.33
2022-12-18T20:36:31.672Z,42.50
2022-12-18T20:39:00.645Z,38.83
2022-12-18T20:41:37.388Z,36.25
2022-12-18T20:46:52.404Z,46.47
2022-12-18T20:49:19.249Z,53.33
2022-12-18T20:51:46.395Z,43.15
2022-12-18T20:54:13.099Z,38.28
2022-12-18T20:56:39.886Z,37.28
2022-12-18T20:59:07.246Z,43.17
2022-12-18T21:01:34.078Z,51.10
2022-12-18T21:04:02.221Z,63.38
2022-12-18T21:06:29.285Z,49.20
2022-12-18T21:08:56.144Z,53.00
2022-12-18T21:11:41.578Z,41.75
2022-12-18T21:14:14.519Z,40.37
2022-12-18T21:16:43.810Z,64.25
2022-12-18T21:19:17.751Z,62.63
2022-12-18T21:21:45.202Z,46.30
2022-12-18T21:24:12.442Z,45.75
2022-12-18T21:26:45.434Z,49.65
2022-12-18T21:29:24.690Z,57.92
2022-12-18T21:31:54.237Z,53.53
2022-12-18T21:34:26.896Z,39.40
2022-12-18T21:36:56.111Z,37.22
2022-12-18T21:39:22.970Z,36.85
2022-12-18T21:42:09.048Z,35.30
2022-12-18T21:44:41.720Z,38.03
2022-12-18T21:47:22.429Z,34.80
2022-12-18T21:49:51.177Z,31.50
2022-12-18T21:52:18.010Z,40.05
2022-12-18T21:54:44.750Z,26.13
2022-12-18T21:57:13.747Z,39.72
2022-12-18T21:59:42.276Z,31.45
2022-12-18T22:02:14.499Z,28.65
2022-12-18T22:04:42.488Z,26.25
2022-12-18T22:07:10.368Z,30.10
2022-12-18T22:09:38.351Z,28.67
2022-12-18T22:12:06.057Z,35.97
2022-12-18T22:14:32.729Z,43.83
2022-12-18T22:16:59.632Z,30.40
2022-12-18T22:19:26.866Z,33.13
2022-12-18T22:21:54.351Z,35.10
2022-12-18T22:24:24.114Z,35.40
2022-12-18T22:26:53.065Z,36.58
2022-12-18T22:29:43.426Z,37.88
2022-12-18T22:32:14.964Z,26.88
2022-12-18T22:34:42.990Z,33.05
2022-12-18T22:37:13.462Z,29.05
2022-12-18T22:39:40.390Z,48.28
2022-12-18T22:42:07.847Z,39.58
2022-12-18T22:44:34.777Z,46.13
2022-12-18T22:47:06.568Z,52.38
2022-12-18T22:49:35.696Z,51.13
2022-12-18T22:52:04.135Z,46.45
2022-12-18T22:54:31.099Z,51.00
2022-12-18T22:56:57.938Z,55.13
2022-12-18T22:59:25.080Z,50.40
2022-12-18T23:01:58.544Z,45.78
2022-12-18T23:04:36.267Z,53.78
2022-12-18T23:07:05.234Z,48.33
2022-12-18T23:09:33.006Z,50.65
2022-12-18T23:11:59.723Z,46.80
2022-12-18T23:14:27.128Z,43.75
2022-12-18T23:16:53.860Z,47.53
2022-12-18T23:19:21.538Z,44.17
2022-12-18T23:21:50.866Z,42.45
2022-12-18T23:24:17.921Z,39.13
2022-12-18T23:26:44.670Z,36.17
2022-12-18T23:29:11.400Z,42.08
2022-12-18T23:31:39.596Z,33.72
2022-12-18T23:34:07.612Z,35.90
2022-12-18T23:36:43.535Z,35.53
2022-12-18T23:39:15.445Z,39.03
2022-12-18T23:41:57.913Z,29.05
2022-12-18T23:44:24.740Z,30.00
2022-12-18T23:46:51.539Z,26.35
2022-12-18T23:49:18.392Z,37.33
2022-12-18T23:51:45.190Z,32.35
2022-12-18T23:54:11.918Z,42.95
2022-12-18T23:56:38.608Z,30.20
2022-12-18T23:59:05.408Z,30.77
